sensor_id;sensor_type;location;lat;lon;timestamp;P1;durP1;ratioP1;P2;durP2;ratioP2
37805;SDS011;25082;50.870;0.022;2023-03-12T00:02:09;2.67;;;1.58;;
37805;SDS011;25082;50.870;0.022;2023-03-12T00:04:34;2.67;;;1.35;;
37805;SDS011;25082;50.870;0.022;2023-03-12T00:07:01;2.13;;;1.42;;
37805;SDS011;25082;50.870;0.022;2023-03-12T00:09:27;2.28;;;1.42;;
37805;SDS011;25082;50.870;0.022;2023-03-12T00:11:53;2.78;;;1.70;;
37805;SDS011;25082;50.870;0.022;2023-03-12T00:14:19;1.63;;;1.33;;
37805;SDS011;25082;50.870;0.022;2023-03-12T00:16:45;3.28;;;1.45;;
37805;SDS011;25082;50.870;0.022;2023-03-12T00:19:11;2.35;;;1.70;;
37805;SDS011;25082;50.870;0.022;2023-03-12T00:21:37;2.33;;;1.55;;
37805;SDS011;25082;50.870;0.022;2023-03-12T00:24:03;1.70;;;1.60;;
37805;SDS011;25082;50.870;0.022;2023-03-12T00:26:29;2.97;;;1.30;;
37805;SDS011;25082;50.870;0.022;2023-03-12T00:28:55;2.85;;;1.60;;
37805;SDS011;25082;50.870;0.022;2023-03-12T00:31:25;2.40;;;1.67;;
37805;SDS011;25082;50.870;0.022;2023-03-12T00:33:53;2.25;;;1.60;;
37805;SDS011;25082;50.870;0.022;2023-03-12T00:36:21;1.95;;;1.40;;
37805;SDS011;25082;50.870;0.022;2023-03-12T00:38:49;1.60;;;1.20;;
37805;SDS011;25082;50.870;0.022;2023-03-12T00:41:15;2.78;;;1.63;;
37805;SDS011;25082;50.870;0.022;2023-03-12T00:43:41;1.85;;;1.30;;
37805;SDS011;25082;50.870;0.022;2023-03-12T00:46:07;1.52;;;1.02;;
37805;SDS011;25082;50.870;0.022;2023-03-12T00:48:32;2.72;;;1.50;;
37805;SDS011;25082;50.870;0.022;2023-03-12T00:50:58;2.92;;;1.40;;
37805;SDS011;25082;50.870;0.022;2023-03-12T00:53:24;2.47;;;1.42;;
37805;SDS011;25082;50.870;0.022;2023-03-12T00:55:49;2.00;;;1.35;;
37805;SDS011;25082;50.870;0.022;2023-03-12T00:58:15;1.70;;;1.35;;
37805;SDS011;25082;50.870;0.022;2023-03-12T01:00:41;1.83;;;1.38;;
37805;SDS011;25082;50.870;0.022;2023-03-12T01:03:07;1.67;;;1.17;;
37805;SDS011;25082;50.870;0.022;2023-03-12T01:05:32;1.63;;;1.20;;
37805;SDS011;25082;50.870;0.022;2023-03-12T01:08:03;3.83;;;1.67;;
37805;SDS011;25082;50.870;0.022;2023-03-12T01:10:29;2.33;;;1.38;;
37805;SDS011;25082;50.870;0.022;2023-03-12T01:12:55;2.10;;;1.20;;
37805;SDS011;25082;50.870;0.022;2023-03-12T01:15:21;2.58;;;1.50;;
37805;SDS011;25082;50.870;0.022;2023-03-12T01:17:46;1.83;;;1.33;;
37805;SDS011;25082;50.870;0.022;2023-03-12T01:20:12;1.88;;;1.20;;
37805;SDS011;25082;50.870;0.022;2023-03-12T01:22:38;2.88;;;1.67;;
37805;SDS011;25082;50.870;0.022;2023-03-12T01:25:04;2.45;;;1.45;;
37805;SDS011;25082;50.870;0.022;2023-03-12T01:27:30;4.13;;;1.67;;
37805;SDS011;25082;50.870;0.022;2023-03-12T01:29:56;3.33;;;1.50;;
37805;SDS011;25082;50.870;0.022;2023-03-12T01:32:22;3.65;;;1.40;;
37805;SDS011;25082;50.870;0.022;2023-03-12T01:34:48;2.53;;;1.40;;
37805;SDS011;25082;50.870;0.022;2023-03-12T01:37:14;4.35;;;1.80;;
37805;SDS011;25082;50.870;0.022;2023-03-12T01:39:39;2.92;;;1.50;;
37805;SDS011;25082;50.870;0.022;2023-03-12T01:42:05;4.18;;;1.73;;
37805;SDS011;25082;50.870;0.022;2023-03-12T01:44:47;3.28;;;1.67;;
37805;SDS011;25082;50.870;0.022;2023-03-12T01:47:17;4.28;;;1.90;;
37805;SDS011;25082;50.870;0.022;2023-03-12T01:49:43;4.38;;;1.85;;
37805;SDS011;25082;50.870;0.022;2023-03-12T01:52:10;5.35;;;1.90;;
37805;SDS011;25082;50.870;0.022;2023-03-12T01:54:43;6.10;;;2.20;;
37805;SDS011;25082;50.870;0.022;2023-03-12T01:57:12;3.90;;;1.70;;
37805;SDS011;25082;50.870;0.022;2023-03-12T01:59:44;5.07;;;2.15;;
37805;SDS011;25082;50.870;0.022;2023-03-12T02:02:16;6.45;;;2.00;;
37805;SDS011;25082;50.870;0.022;2023-03-12T02:04:47;5.57;;;1.98;;
37805;SDS011;25082;50.870;0.022;2023-03-12T02:07:16;6.63;;;2.20;;
37805;SDS011;25082;50.870;0.022;2023-03-12T02:09:42;4.47;;;2.10;;
37805;SDS011;25082;50.870;0.022;2023-03-12T02:12:11;5.38;;;1.75;;
37805;SDS011;25082;50.870;0.022;2023-03-12T02:14:37;3.88;;;1.95;;
37805;SDS011;25082;50.870;0.022;2023-03-12T02:17:04;6.05;;;1.95;;
37805;SDS011;25082;50.870;0.022;2023-03-12T02:22:14;5.57;;;2.05;;
37805;SDS011;25082;50.870;0.022;2023-03-12T02:27:20;6.53;;;2.08;;
37805;SDS011;25082;50.870;0.022;2023-03-12T02:29:47;3.17;;;1.92;;
37805;SDS011;25082;50.870;0.022;2023-03-12T02:32:19;3.20;;;1.50;;
37805;SDS011;25082;50.870;0.022;2023-03-12T02:34:48;4.60;;;2.20;;
37805;SDS011;25082;50.870;0.022;2023-03-12T02:37:15;6.13;;;2.45;;
37805;SDS011;25082;50.870;0.022;2023-03-12T02:39:41;5.75;;;1.90;;
37805;SDS011;25082;50.870;0.022;2023-03-12T02:42:08;5.97;;;2.53;;
37805;SDS011;25082;50.870;0.022;2023-03-12T02:44:34;6.13;;;2.03;;
37805;SDS011;25082;50.870;0.022;2023-03-12T02:47:02;5.53;;;2.20;;
37805;SDS011;25082;50.870;0.022;2023-03-12T02:49:30;5.85;;;1.90;;
37805;SDS011;25082;50.870;0.022;2023-03-12T02:51:57;7.40;;;3.05;;
37805;SDS011;25082;50.870;0.022;2023-03-12T02:54:23;5.68;;;2.65;;
37805;SDS011;25082;50.870;0.022;2023-03-12T02:56:51;7.40;;;3.10;;
37805;SDS011;25082;50.870;0.022;2023-03-12T02:59:17;6.18;;;2.55;;
37805;SDS011;25082;50.870;0.022;2023-03-12T03:01:45;8.40;;;2.72;;
37805;SDS011;25082;50.870;0.022;2023-03-12T03:04:12;7.05;;;2.78;;
37805;SDS011;25082;50.870;0.022;2023-03-12T03:06:40;6.82;;;2.55;;
37805;SDS011;25082;50.870;0.022;2023-03-12T03:09:08;6.30;;;2.75;;
37805;SDS011;25082;50.870;0.022;2023-03-12T03:11:34;9.82;;;2.85;;
37805;SDS011;25082;50.870;0.022;2023-03-12T03:14:00;8.02;;;3.17;;
37805;SDS011;25082;50.870;0.022;2023-03-12T03:16:27;11.07;;;2.85;;
37805;SDS011;25082;50.870;0.022;2023-03-12T03:18:53;8.90;;;2.85;;
37805;SDS011;25082;50.870;0.022;2023-03-12T03:21:19;5.07;;;2.45;;
37805;SDS011;25082;50.870;0.022;2023-03-12T03:23:47;8.25;;;2.90;;
37805;SDS011;25082;50.870;0.022;2023-03-12T03:26:14;7.57;;;3.08;;
37805;SDS011;25082;50.870;0.022;2023-03-12T03:28:42;8.55;;;2.40;;
37805;SDS011;25082;50.870;0.022;2023-03-12T03:31:07;8.38;;;2.67;;
37805;SDS011;25082;50.870;0.022;2023-03-12T03:33:34;11.20;;;2.92;;
37805;SDS011;25082;50.870;0.022;2023-03-12T03:36:02;7.88;;;2.50;;
37805;SDS011;25082;50.870;0.022;2023-03-12T03:38:29;10.25;;;3.70;;
37805;SDS011;25082;50.870;0.022;2023-03-12T03:40:55;8.98;;;2.80;;
37805;SDS011;25082;50.870;0.022;2023-03-12T03:43:21;6.50;;;2.33;;
37805;SDS011;25082;50.870;0.022;2023-03-12T03:45:47;7.10;;;2.30;;
37805;SDS011;25082;50.870;0.022;2023-03-12T03:48:20;6.10;;;2.55;;
37805;SDS011;25082;50.870;0.022;2023-03-12T03:50:45;10.02;;;3.40;;
37805;SDS011;25082;50.870;0.022;2023-03-12T03:53:12;10.38;;;3.20;;
37805;SDS011;25082;50.870;0.022;2023-03-12T03:55:38;7.40;;;3.05;;
37805;SDS011;25082;50.870;0.022;2023-03-12T03:58:04;8.88;;;3.45;;
37805;SDS011;25082;50.870;0.022;2023-03-12T04:00:31;9.60;;;3.42;;
37805;SDS011;25082;50.870;0.022;2023-03-12T04:02:57;10.27;;;3.38;;
37805;SDS011;25082;50.870;0.022;2023-03-12T04:05:23;14.45;;;4.00;;
37805;SDS011;25082;50.870;0.022;2023-03-12T04:07:50;12.48;;;3.03;;
37805;SDS011;25082;50.870;0.022;2023-03-12T04:10:19;12.88;;;3.38;;
37805;SDS011;25082;50.870;0.022;2023-03-12T04:12:45;12.80;;;4.20;;
37805;SDS011;25082;50.870;0.022;2023-03-12T04:15:11;10.77;;;3.35;;
37805;SDS011;25082;50.870;0.022;2023-03-12T04:17:37;11.93;;;3.55;;
37805;SDS011;25082;50.870;0.022;2023-03-12T04:20:03;11.23;;;4.50;;
37805;SDS011;25082;50.870;0.022;2023-03-12T04:22:33;11.00;;;3.28;;
37805;SDS011;25082;50.870;0.022;2023-03-12T04:24:59;11.05;;;3.83;;
37805;SDS011;25082;50.870;0.022;2023-03-12T04:27:25;14.63;;;4.18;;
37805;SDS011;25082;50.870;0.022;2023-03-12T04:29:51;10.93;;;3.78;;
37805;SDS011;25082;50.870;0.022;2023-03-12T04:32:17;16.63;;;5.07;;
37805;SDS011;25082;50.870;0.022;2023-03-12T04:34:42;13.85;;;4.72;;
37805;SDS011;25082;50.870;0.022;2023-03-12T04:37:08;13.45;;;4.15;;
37805;SDS011;25082;50.870;0.022;2023-03-12T04:39:41;15.50;;;3.60;;
37805;SDS011;25082;50.870;0.022;2023-03-12T04:42:08;11.10;;;4.07;;
37805;SDS011;25082;50.870;0.022;2023-03-12T04:44:34;15.52;;;4.50;;
37805;SDS011;25082;50.870;0.022;2023-03-12T04:47:00;14.70;;;4.50;;
37805;SDS011;25082;50.870;0.022;2023-03-12T04:49:26;16.85;;;4.40;;
37805;SDS011;25082;50.870;0.022;2023-03-12T04:51:52;13.05;;;4.53;;
37805;SDS011;25082;50.870;0.022;2023-03-12T04:54:18;15.18;;;5.35;;
37805;SDS011;25082;50.870;0.022;2023-03-12T04:56:45;11.23;;;4.28;;
37805;SDS011;25082;50.870;0.022;2023-03-12T04:59:11;15.40;;;5.00;;
37805;SDS011;25082;50.870;0.022;2023-03-12T05:01:37;12.65;;;4.50;;
37805;SDS011;25082;50.870;0.022;2023-03-12T05:04:03;13.60;;;5.22;;
37805;SDS011;25082;50.870;0.022;2023-03-12T05:06:29;15.65;;;5.13;;
37805;SDS011;25082;50.870;0.022;2023-03-12T05:08:55;13.02;;;4.60;;
37805;SDS011;25082;50.870;0.022;2023-03-12T05:11:21;15.55;;;4.80;;
37805;SDS011;25082;50.870;0.022;2023-03-12T05:13:47;14.45;;;5.15;;
37805;SDS011;25082;50.870;0.022;2023-03-12T05:16:13;17.60;;;4.70;;
37805;SDS011;25082;50.870;0.022;2023-03-12T05:18:40;14.30;;;5.47;;
37805;SDS011;25082;50.870;0.022;2023-03-12T05:21:08;18.13;;;4.57;;
37805;SDS011;25082;50.870;0.022;2023-03-12T05:23:38;15.47;;;4.60;;
37805;SDS011;25082;50.870;0.022;2023-03-12T05:26:06;14.35;;;4.13;;
37805;SDS011;25082;50.870;0.022;2023-03-12T05:28:52;12.55;;;4.45;;
37805;SDS011;25082;50.870;0.022;2023-03-12T05:31:18;14.32;;;4.82;;
37805;SDS011;25082;50.870;0.022;2023-03-12T05:33:45;19.30;;;5.90;;
37805;SDS011;25082;50.870;0.022;2023-03-12T05:36:11;20.30;;;6.70;;
37805;SDS011;25082;50.870;0.022;2023-03-12T05:38:38;16.63;;;4.60;;
37805;SDS011;25082;50.870;0.022;2023-03-12T05:41:04;14.32;;;5.18;;
37805;SDS011;25082;50.870;0.022;2023-03-12T05:43:31;13.68;;;4.57;;
37805;SDS011;25082;50.870;0.022;2023-03-12T05:45:58;17.80;;;5.32;;
37805;SDS011;25082;50.870;0.022;2023-03-12T05:48:25;12.60;;;4.40;;
37805;SDS011;25082;50.870;0.022;2023-03-12T05:50:50;12.95;;;4.45;;
37805;SDS011;25082;50.870;0.022;2023-03-12T05:53:16;17.70;;;5.10;;
37805;SDS011;25082;50.870;0.022;2023-03-12T05:55:42;14.95;;;4.35;;
37805;SDS011;25082;50.870;0.022;2023-03-12T05:58:08;15.68;;;4.88;;
37805;SDS011;25082;50.870;0.022;2023-03-12T06:00:34;16.15;;;4.38;;
37805;SDS011;25082;50.870;0.022;2023-03-12T06:03:03;16.20;;;5.63;;
37805;SDS011;25082;50.870;0.022;2023-03-12T06:05:30;15.30;;;4.75;;
37805;SDS011;25082;50.870;0.022;2023-03-12T06:07:57;17.27;;;5.30;;
37805;SDS011;25082;50.870;0.022;2023-03-12T06:10:23;14.50;;;4.78;;
37805;SDS011;25082;50.870;0.022;2023-03-12T06:12:48;13.65;;;4.57;;
37805;SDS011;25082;50.870;0.022;2023-03-12T06:15:14;13.23;;;4.47;;
37805;SDS011;25082;50.870;0.022;2023-03-12T06:17:40;13.43;;;4.93;;
37805;SDS011;25082;50.870;0.022;2023-03-12T06:20:06;13.05;;;4.38;;
37805;SDS011;25082;50.870;0.022;2023-03-12T06:22:32;11.82;;;4.38;;
37805;SDS011;25082;50.870;0.022;2023-03-12T06:24:58;12.00;;;4.28;;
37805;SDS011;25082;50.870;0.022;2023-03-12T06:27:24;15.80;;;5.00;;
37805;SDS011;25082;50.870;0.022;2023-03-12T06:29:49;14.88;;;4.80;;
37805;SDS011;25082;50.870;0.022;2023-03-12T06:32:15;14.98;;;4.10;;
37805;SDS011;25082;50.870;0.022;2023-03-12T06:34:42;15.93;;;4.70;;
37805;SDS011;25082;50.870;0.022;2023-03-12T06:37:08;12.32;;;4.47;;
37805;SDS011;25082;50.870;0.022;2023-03-12T06:39:35;11.43;;;3.92;;
37805;SDS011;25082;50.870;0.022;2023-03-12T06:42:02;12.65;;;4.30;;
37805;SDS011;25082;50.870;0.022;2023-03-12T06:44:28;12.02;;;4.32;;
37805;SDS011;25082;50.870;0.022;2023-03-12T06:46:54;13.68;;;4.60;;
37805;SDS011;25082;50.870;0.022;2023-03-12T06:49:20;13.05;;;4.88;;
37805;SDS011;25082;50.870;0.022;2023-03-12T06:51:46;10.57;;;3.40;;
37805;SDS011;25082;50.870;0.022;2023-03-12T06:54:11;11.90;;;4.47;;
37805;SDS011;25082;50.870;0.022;2023-03-12T06:56:37;15.65;;;4.47;;
37805;SDS011;25082;50.870;0.022;2023-03-12T06:59:03;12.05;;;4.20;;
37805;SDS011;25082;50.870;0.022;2023-03-12T07:01:29;15.73;;;4.32;;
37805;SDS011;25082;50.870;0.022;2023-03-12T07:03:55;11.63;;;3.80;;
37805;SDS011;25082;50.870;0.022;2023-03-12T07:06:21;10.48;;;4.28;;
37805;SDS011;25082;50.870;0.022;2023-03-12T07:08:48;14.73;;;4.43;;
37805;SDS011;25082;50.870;0.022;2023-03-12T07:11:14;14.13;;;4.15;;
37805;SDS011;25082;50.870;0.022;2023-03-12T07:13:41;15.50;;;4.10;;
37805;SDS011;25082;50.870;0.022;2023-03-12T07:16:07;11.82;;;4.05;;
37805;SDS011;25082;50.870;0.022;2023-03-12T07:18:33;11.13;;;4.10;;
37805;SDS011;25082;50.870;0.022;2023-03-12T07:20:59;15.43;;;4.05;;
37805;SDS011;25082;50.870;0.022;2023-03-12T07:23:25;13.70;;;4.03;;
37805;SDS011;25082;50.870;0.022;2023-03-12T07:25:51;12.43;;;4.10;;
37805;SDS011;25082;50.870;0.022;2023-03-12T07:28:17;16.13;;;4.20;;
37805;SDS011;25082;50.870;0.022;2023-03-12T07:30:43;14.80;;;4.25;;
37805;SDS011;25082;50.870;0.022;2023-03-12T07:33:14;12.85;;;4.07;;
37805;SDS011;25082;50.870;0.022;2023-03-12T07:35:42;10.43;;;3.28;;
37805;SDS011;25082;50.870;0.022;2023-03-12T07:38:08;14.60;;;4.47;;
37805;SDS011;25082;50.870;0.022;2023-03-12T07:40:34;13.93;;;4.43;;
37805;SDS011;25082;50.870;0.022;2023-03-12T07:43:00;10.57;;;3.53;;
37805;SDS011;25082;50.870;0.022;2023-03-12T07:45:26;10.68;;;3.78;;
37805;SDS011;25082;50.870;0.022;2023-03-12T07:47:52;13.63;;;3.95;;
37805;SDS011;25082;50.870;0.022;2023-03-12T07:50:18;12.45;;;5.43;;
37805;SDS011;25082;50.870;0.022;2023-03-12T07:52:44;11.75;;;3.83;;
37805;SDS011;25082;50.870;0.022;2023-03-12T07:55:10;13.93;;;4.65;;
37805;SDS011;25082;50.870;0.022;2023-03-12T07:57:36;9.73;;;3.63;;
37805;SDS011;25082;50.870;0.022;2023-03-12T08:00:04;12.57;;;3.88;;
37805;SDS011;25082;50.870;0.022;2023-03-12T08:02:34;14.63;;;4.23;;
37805;SDS011;25082;50.870;0.022;2023-03-12T08:05:00;15.55;;;5.43;;
37805;SDS011;25082;50.870;0.022;2023-03-12T08:07:26;14.25;;;3.78;;
37805;SDS011;25082;50.870;0.022;2023-03-12T08:09:57;11.90;;;4.10;;
37805;SDS011;25082;50.870;0.022;2023-03-12T08:12:23;17.90;;;4.63;;
37805;SDS011;25082;50.870;0.022;2023-03-12T08:14:48;12.73;;;4.25;;
37805;SDS011;25082;50.870;0.022;2023-03-12T08:17:14;14.05;;;4.30;;
37805;SDS011;25082;50.870;0.022;2023-03-12T08:19:40;14.45;;;4.05;;
37805;SDS011;25082;50.870;0.022;2023-03-12T08:22:06;14.05;;;4.13;;
37805;SDS011;25082;50.870;0.022;2023-03-12T08:24:32;10.57;;;3.72;;
37805;SDS011;25082;50.870;0.022;2023-03-12T08:26:59;15.32;;;4.22;;
37805;SDS011;25082;50.870;0.022;2023-03-12T08:29:25;29.75;;;4.63;;
37805;SDS011;25082;50.870;0.022;2023-03-12T08:31:51;11.57;;;3.80;;
37805;SDS011;25082;50.870;0.022;2023-03-12T08:34:16;15.43;;;3.85;;
37805;SDS011;25082;50.870;0.022;2023-03-12T08:36:42;12.30;;;4.18;;
37805;SDS011;25082;50.870;0.022;2023-03-12T08:39:08;21.13;;;4.95;;
37805;SDS011;25082;50.870;0.022;2023-03-12T08:41:34;12.50;;;3.83;;
37805;SDS011;25082;50.870;0.022;2023-03-12T08:43:59;13.38;;;3.63;;
37805;SDS011;25082;50.870;0.022;2023-03-12T08:46:25;13.50;;;4.38;;
37805;SDS011;25082;50.870;0.022;2023-03-12T08:48:51;14.50;;;4.82;;
37805;SDS011;25082;50.870;0.022;2023-03-12T08:51:17;14.90;;;3.95;;
37805;SDS011;25082;50.870;0.022;2023-03-12T08:53:43;16.10;;;4.57;;
37805;SDS011;25082;50.870;0.022;2023-03-12T08:56:09;12.48;;;4.43;;
37805;SDS011;25082;50.870;0.022;2023-03-12T08:58:34;14.82;;;4.47;;
37805;SDS011;25082;50.870;0.022;2023-03-12T09:01:00;15.23;;;4.50;;
37805;SDS011;25082;50.870;0.022;2023-03-12T09:03:26;14.82;;;4.80;;
37805;SDS011;25082;50.870;0.022;2023-03-12T09:06:08;14.52;;;4.85;;
37805;SDS011;25082;50.870;0.022;2023-03-12T09:08:38;12.55;;;5.00;;
37805;SDS011;25082;50.870;0.022;2023-03-12T09:11:04;12.88;;;4.15;;
37805;SDS011;25082;50.870;0.022;2023-03-12T09:13:32;15.05;;;4.60;;
37805;SDS011;25082;50.870;0.022;2023-03-12T09:15:58;15.70;;;5.05;;
37805;SDS011;25082;50.870;0.022;2023-03-12T09:18:25;19.48;;;4.05;;
37805;SDS011;25082;50.870;0.022;2023-03-12T09:20:52;15.70;;;4.80;;
37805;SDS011;25082;50.870;0.022;2023-03-12T09:23:17;16.58;;;4.43;;
37805;SDS011;25082;50.870;0.022;2023-03-12T09:25:44;15.73;;;4.78;;
37805;SDS011;25082;50.870;0.022;2023-03-12T09:28:10;14.32;;;4.55;;
37805;SDS011;25082;50.870;0.022;2023-03-12T09:30:36;14.68;;;4.32;;
37805;SDS011;25082;50.870;0.022;2023-03-12T09:33:02;13.35;;;3.70;;
37805;SDS011;25082;50.870;0.022;2023-03-12T09:35:28;16.48;;;4.45;;
37805;SDS011;25082;50.870;0.022;2023-03-12T09:37:55;14.43;;;4.05;;
37805;SDS011;25082;50.870;0.022;2023-03-12T09:40:23;13.55;;;4.20;;
37805;SDS011;25082;50.870;0.022;2023-03-12T09:42:57;20.08;;;4.10;;
37805;SDS011;25082;50.870;0.022;2023-03-12T09:45:31;21.45;;;4.70;;
37805;SDS011;25082;50.870;0.022;2023-03-12T09:48:03;18.02;;;4.57;;
37805;SDS011;25082;50.870;0.022;2023-03-12T09:50:32;15.38;;;4.22;;
37805;SDS011;25082;50.870;0.022;2023-03-12T09:55:48;14.48;;;4.05;;
37805;SDS011;25082;50.870;0.022;2023-03-12T09:58:33;16.40;;;4.20;;
37805;SDS011;25082;50.870;0.022;2023-03-12T10:06:22;14.18;;;3.80;;
37805;SDS011;25082;50.870;0.022;2023-03-12T10:11:31;14.23;;;4.13;;
37805;SDS011;25082;50.870;0.022;2023-03-12T10:23:02;18.08;;;4.53;;
37805;SDS011;25082;50.870;0.022;2023-03-12T10:25:26;15.48;;;4.35;;
37805;SDS011;25082;50.870;0.022;2023-03-12T10:27:58;15.50;;;4.32;;
37805;SDS011;25082;50.870;0.022;2023-03-12T10:32:55;21.20;;;5.15;;
37805;SDS011;25082;50.870;0.022;2023-03-12T10:35:28;15.85;;;4.72;;
37805;SDS011;25082;50.870;0.022;2023-03-12T10:37:58;12.77;;;4.28;;
37805;SDS011;25082;50.870;0.022;2023-03-12T10:40:35;14.70;;;4.38;;
37805;SDS011;25082;50.870;0.022;2023-03-12T10:43:03;16.58;;;4.30;;
37805;SDS011;25082;50.870;0.022;2023-03-12T10:45:52;14.82;;;3.92;;
37805;SDS011;25082;50.870;0.022;2023-03-12T10:48:39;12.18;;;3.95;;
37805;SDS011;25082;50.870;0.022;2023-03-12T10:51:08;13.07;;;4.18;;
37805;SDS011;25082;50.870;0.022;2023-03-12T10:53:39;14.70;;;4.75;;
37805;SDS011;25082;50.870;0.022;2023-03-12T10:56:16;14.60;;;4.25;;
37805;SDS011;25082;50.870;0.022;2023-03-12T11:01:19;16.90;;;4.75;;
37805;SDS011;25082;50.870;0.022;2023-03-12T11:03:47;15.57;;;5.00;;
37805;SDS011;25082;50.870;0.022;2023-03-12T11:06:25;16.02;;;4.45;;
37805;SDS011;25082;50.870;0.022;2023-03-12T11:09:35;19.52;;;4.75;;
37805;SDS011;25082;50.870;0.022;2023-03-12T11:11:43;14.02;;;4.07;;
37805;SDS011;25082;50.870;0.022;2023-03-12T11:16:45;14.43;;;4.13;;
37805;SDS011;25082;50.870;0.022;2023-03-12T11:19:12;11.68;;;4.10;;
37805;SDS011;25082;50.870;0.022;2023-03-12T11:21:54;16.40;;;4.57;;
37805;SDS011;25082;50.870;0.022;2023-03-12T11:27:05;13.50;;;3.90;;
37805;SDS011;25082;50.870;0.022;2023-03-12T11:29:33;14.32;;;4.20;;
37805;SDS011;25082;50.870;0.022;2023-03-12T11:32:22;13.20;;;5.00;;
37805;SDS011;25082;50.870;0.022;2023-03-12T11:34:55;13.40;;;4.20;;
37805;SDS011;25082;50.870;0.022;2023-03-12T12:01:53;12.30;;;3.90;;
37805;SDS011;25082;50.870;0.022;2023-03-12T12:04:38;18.35;;;4.95;;
37805;SDS011;25082;50.870;0.022;2023-03-12T12:16:01;12.07;;;4.30;;
37805;SDS011;25082;50.870;0.022;2023-03-12T12:24:47;13.27;;;3.78;;
37805;SDS011;25082;50.870;0.022;2023-03-12T12:27:35;13.02;;;4.03;;
37805;SDS011;25082;50.870;0.022;2023-03-12T12:30:57;11.30;;;3.90;;
37805;SDS011;25082;50.870;0.022;2023-03-12T12:35:58;9.13;;;2.97;;
37805;SDS011;25082;50.870;0.022;2023-03-12T12:41:16;9.82;;;3.58;;
37805;SDS011;25082;50.870;0.022;2023-03-12T12:43:49;9.95;;;2.83;;
37805;SDS011;25082;50.870;0.022;2023-03-12T12:46:27;9.25;;;2.95;;
37805;SDS011;25082;50.870;0.022;2023-03-12T12:51:49;7.72;;;2.72;;
37805;SDS011;25082;50.870;0.022;2023-03-12T13:02:37;8.45;;;2.63;;
37805;SDS011;25082;50.870;0.022;2023-03-12T13:08:05;7.30;;;2.65;;
37805;SDS011;25082;50.870;0.022;2023-03-12T13:13:10;9.52;;;2.92;;
37805;SDS011;25082;50.870;0.022;2023-03-12T13:15:47;9.80;;;2.75;;
37805;SDS011;25082;50.870;0.022;2023-03-12T13:18:26;8.80;;;2.17;;
37805;SDS011;25082;50.870;0.022;2023-03-12T13:25:58;11.52;;;3.22;;
37805;SDS011;25082;50.870;0.022;2023-03-12T13:33:53;8.02;;;2.80;;
37805;SDS011;25082;50.870;0.022;2023-03-12T13:36:35;10.57;;;2.72;;
37805;SDS011;25082;50.870;0.022;2023-03-12T13:41:40;7.55;;;2.10;;
37805;SDS011;25082;50.870;0.022;2023-03-12T13:49:53;12.88;;;2.58;;
37805;SDS011;25082;50.870;0.022;2023-03-12T13:52:31;5.57;;;2.55;;
37805;SDS011;25082;50.870;0.022;2023-03-12T13:57:49;9.57;;;3.50;;
37805;SDS011;25082;50.870;0.022;2023-03-12T14:02:59;11.27;;;3.28;;
37805;SDS011;25082;50.870;0.022;2023-03-12T14:05:58;9.73;;;2.83;;
37805;SDS011;25082;50.870;0.022;2023-03-12T14:16:51;9.27;;;3.25;;
37805;SDS011;25082;50.870;0.022;2023-03-12T14:19:24;9.77;;;3.28;;
37805;SDS011;25082;50.870;0.022;2023-03-12T14:21:52;8.35;;;2.55;;
37805;SDS011;25082;50.870;0.022;2023-03-12T14:24:27;8.80;;;3.13;;
37805;SDS011;25082;50.870;0.022;2023-03-12T14:26:59;12.50;;;3.20;;
37805;SDS011;25082;50.870;0.022;2023-03-12T14:29:37;13.80;;;3.22;;
37805;SDS011;25082;50.870;0.022;2023-03-12T14:32:12;14.18;;;3.88;;
37805;SDS011;25082;50.870;0.022;2023-03-12T14:34:45;16.98;;;3.78;;
37805;SDS011;25082;50.870;0.022;2023-03-12T14:37:17;7.88;;;3.10;;
37805;SDS011;25082;50.870;0.022;2023-03-12T14:39:48;11.63;;;3.63;;
37805;SDS011;25082;50.870;0.022;2023-03-12T14:44:53;11.75;;;3.25;;
37805;SDS011;25082;50.870;0.022;2023-03-12T14:47:23;14.00;;;4.03;;
37805;SDS011;25082;50.870;0.022;2023-03-12T14:49:48;10.27;;;3.13;;
37805;SDS011;25082;50.870;0.022;2023-03-12T14:52:24;12.45;;;3.40;;
37805;SDS011;25082;50.870;0.022;2023-03-12T14:55:00;10.40;;;3.38;;
37805;SDS011;25082;50.870;0.022;2023-03-12T14:57:32;14.60;;;3.30;;
37805;SDS011;25082;50.870;0.022;2023-03-12T14:59:59;13.20;;;3.72;;
37805;SDS011;25082;50.870;0.022;2023-03-12T15:02:26;11.15;;;3.53;;
37805;SDS011;25082;50.870;0.022;2023-03-12T15:04:54;13.55;;;4.05;;
37805;SDS011;25082;50.870;0.022;2023-03-12T15:07:29;11.27;;;3.50;;
37805;SDS011;25082;50.870;0.022;2023-03-12T15:09:58;13.27;;;4.00;;
37805;SDS011;25082;50.870;0.022;2023-03-12T15:12:30;11.70;;;3.63;;
37805;SDS011;25082;50.870;0.022;2023-03-12T15:15:10;13.38;;;3.70;;
37805;SDS011;25082;50.870;0.022;2023-03-12T15:17:49;14.20;;;3.67;;
37805;SDS011;25082;50.870;0.022;2023-03-12T15:20:15;9.70;;;3.58;;
37805;SDS011;25082;50.870;0.022;2023-03-12T15:22:50;9.30;;;3.53;;
37805;SDS011;25082;50.870;0.022;2023-03-12T15:25:21;10.00;;;3.45;;
37805;SDS011;25082;50.870;0.022;2023-03-12T15:28:38;12.38;;;3.90;;
37805;SDS011;25082;50.870;0.022;2023-03-12T15:31:00;11.80;;;3.30;;
37805;SDS011;25082;50.870;0.022;2023-03-12T15:33:43;14.43;;;3.83;;
37805;SDS011;25082;50.870;0.022;2023-03-12T15:38:47;12.63;;;4.35;;
37805;SDS011;25082;50.870;0.022;2023-03-12T15:41:20;11.10;;;3.17;;
37805;SDS011;25082;50.870;0.022;2023-03-12T15:46:53;9.73;;;3.10;;
37805;SDS011;25082;50.870;0.022;2023-03-12T15:49:26;12.90;;;3.75;;
37805;SDS011;25082;50.870;0.022;2023-03-12T15:51:58;11.05;;;3.45;;
37805;SDS011;25082;50.870;0.022;2023-03-12T15:54:57;12.13;;;2.95;;
37805;SDS011;25082;50.870;0.022;2023-03-12T15:57:24;12.60;;;3.17;;
37805;SDS011;25082;50.870;0.022;2023-03-12T16:02:58;10.10;;;3.38;;
37805;SDS011;25082;50.870;0.022;2023-03-12T16:05:28;10.50;;;3.40;;
37805;SDS011;25082;50.870;0.022;2023-03-12T16:07:55;12.32;;;3.40;;
37805;SDS011;25082;50.870;0.022;2023-03-12T16:10:24;12.10;;;4.28;;
37805;SDS011;25082;50.870;0.022;2023-03-12T16:12:53;10.55;;;3.35;;
37805;SDS011;25082;50.870;0.022;2023-03-12T16:15:27;11.02;;;3.55;;
37805;SDS011;25082;50.870;0.022;2023-03-12T16:17:55;11.25;;;3.65;;
37805;SDS011;25082;50.870;0.022;2023-03-12T16:20:21;9.98;;;3.40;;
37805;SDS011;25082;50.870;0.022;2023-03-12T16:22:47;8.38;;;3.53;;
37805;SDS011;25082;50.870;0.022;2023-03-12T16:25:13;11.35;;;2.92;;
37805;SDS011;25082;50.870;0.022;2023-03-12T16:27:44;12.57;;;3.92;;
37805;SDS011;25082;50.870;0.022;2023-03-12T16:30:16;12.20;;;3.53;;
37805;SDS011;25082;50.870;0.022;2023-03-12T16:32:45;11.30;;;3.47;;
37805;SDS011;25082;50.870;0.022;2023-03-12T16:35:12;12.60;;;3.92;;
37805;SDS011;25082;50.870;0.022;2023-03-12T16:37:39;11.43;;;3.42;;
37805;SDS011;25082;50.870;0.022;2023-03-12T16:40:05;12.93;;;4.00;;
37805;SDS011;25082;50.870;0.022;2023-03-12T16:42:32;11.25;;;3.80;;
37805;SDS011;25082;50.870;0.022;2023-03-12T16:45:00;11.93;;;3.83;;
37805;SDS011;25082;50.870;0.022;2023-03-12T16:47:26;12.82;;;3.63;;
37805;SDS011;25082;50.870;0.022;2023-03-12T16:49:52;13.60;;;3.83;;
37805;SDS011;25082;50.870;0.022;2023-03-12T16:52:18;15.73;;;4.05;;
37805;SDS011;25082;50.870;0.022;2023-03-12T16:54:47;14.73;;;4.10;;
37805;SDS011;25082;50.870;0.022;2023-03-12T16:57:26;15.02;;;4.32;;
37805;SDS011;25082;50.870;0.022;2023-03-12T16:59:57;15.00;;;4.30;;
37805;SDS011;25082;50.870;0.022;2023-03-12T17:02:24;16.40;;;5.35;;
37805;SDS011;25082;50.870;0.022;2023-03-12T17:04:50;16.55;;;4.90;;
37805;SDS011;25082;50.870;0.022;2023-03-12T17:07:17;13.77;;;3.53;;
37805;SDS011;25082;50.870;0.022;2023-03-12T17:09:42;12.07;;;3.92;;